sensor_id;sensor_type;location;lat;lon;timestamp;P1;durP1;ratioP1;P2;durP2;ratioP2
17488;SDS011;8861;52.644;4.734;2024-02-26T00:00:18;28.27;;;16.73;;
17488;SDS011;8861;52.644;4.734;2024-02-26T00:02:46;27.40;;;15.73;;
17488;SDS011;8861;52.644;4.734;2024-02-26T00:05:12;30.90;;;17.37;;
17488;SDS011;8861;52.644;4.734;2024-02-26T00:07:41;29.37;;;17.37;;
17488;SDS011;8861;52.644;4.734;2024-02-26T00:10:09;30.97;;;17.70;;
17488;SDS011;8861;52.644;4.734;2024-02-26T00:12:36;29.03;;;16.73;;
17488;SDS011;8861;52.644;4.734;2024-02-26T00:15:04;34.17;;;17.93;;
17488;SDS011;8861;52.644;4.734;2024-02-26T00:17:31;29.93;;;17.20;;
17488;SDS011;8861;52.644;4.734;2024-02-26T00:19:58;30.17;;;16.77;;
17488;SDS011;8861;52.644;4.734;2024-02-26T00:22:26;29.80;;;16.93;;
17488;SDS011;8861;52.644;4.734;2024-02-26T00:24:55;28.93;;;16.20;;
17488;SDS011;8861;52.644;4.734;2024-02-26T00:27:22;31.83;;;17.57;;
17488;SDS011;8861;52.644;4.734;2024-02-26T00:29:49;27.07;;;16.17;;
17488;SDS011;8861;52.644;4.734;2024-02-26T00:32:16;28.10;;;15.60;;
17488;SDS011;8861;52.644;4.734;2024-02-26T00:34:44;30.07;;;16.60;;
17488;SDS011;8861;52.644;4.734;2024-02-26T00:37:11;28.20;;;16.63;;
17488;SDS011;8861;52.644;4.734;2024-02-26T00:39:38;30.30;;;16.83;;
17488;SDS011;8861;52.644;4.734;2024-02-26T00:42:07;33.23;;;18.23;;
17488;SDS011;8861;52.644;4.734;2024-02-26T00:44:34;33.43;;;18.20;;
17488;SDS011;8861;52.644;4.734;2024-02-26T00:47:02;30.37;;;17.20;;
17488;SDS011;8861;52.644;4.734;2024-02-26T00:49:30;33.17;;;18.07;;
17488;SDS011;8861;52.644;4.734;2024-02-26T00:51:57;30.67;;;17.53;;
17488;SDS011;8861;52.644;4.734;2024-02-26T00:54:24;29.70;;;17.07;;
17488;SDS011;8861;52.644;4.734;2024-02-26T00:56:52;34.53;;;17.70;;
17488;SDS011;8861;52.644;4.734;2024-02-26T00:59:20;34.27;;;18.30;;
17488;SDS011;8861;52.644;4.734;2024-02-26T01:01:47;31.83;;;18.10;;
17488;SDS011;8861;52.644;4.734;2024-02-26T01:04:15;35.33;;;18.67;;
17488;SDS011;8861;52.644;4.734;2024-02-26T01:06:45;31.90;;;17.10;;
17488;SDS011;8861;52.644;4.734;2024-02-26T01:09:13;33.60;;;18.10;;
17488;SDS011;8861;52.644;4.734;2024-02-26T01:11:40;39.20;;;20.43;;
17488;SDS011;8861;52.644;4.734;2024-02-26T01:14:09;34.20;;;19.17;;
17488;SDS011;8861;52.644;4.734;2024-02-26T01:16:37;39.23;;;19.00;;
17488;SDS011;8861;52.644;4.734;2024-02-26T01:19:04;37.80;;;19.87;;
17488;SDS011;8861;52.644;4.734;2024-02-26T01:21:32;39.47;;;19.77;;
17488;SDS011;8861;52.644;4.734;2024-02-26T01:23:58;42.03;;;20.93;;
17488;SDS011;8861;52.644;4.734;2024-02-26T01:26:26;40.47;;;20.03;;
17488;SDS011;8861;52.644;4.734;2024-02-26T01:28:53;42.83;;;20.70;;
17488;SDS011;8861;52.644;4.734;2024-02-26T01:31:21;42.17;;;21.17;;
17488;SDS011;8861;52.644;4.734;2024-02-26T01:33:49;42.40;;;20.67;;
17488;SDS011;8861;52.644;4.734;2024-02-26T01:36:17;41.23;;;20.40;;
17488;SDS011;8861;52.644;4.734;2024-02-26T01:38:45;41.80;;;20.23;;
17488;SDS011;8861;52.644;4.734;2024-02-26T01:41:13;43.17;;;20.83;;
17488;SDS011;8861;52.644;4.734;2024-02-26T01:43:41;46.27;;;20.50;;
17488;SDS011;8861;52.644;4.734;2024-02-26T01:46:12;41.13;;;19.23;;
17488;SDS011;8861;52.644;4.734;2024-02-26T01:48:56;41.17;;;20.13;;
17488;SDS011;8861;52.644;4.734;2024-02-26T01:51:27;42.30;;;19.57;;
17488;SDS011;8861;52.644;4.734;2024-02-26T01:54:00;40.50;;;19.57;;
17488;SDS011;8861;52.644;4.734;2024-02-26T01:56:38;41.20;;;19.47;;
17488;SDS011;8861;52.644;4.734;2024-02-26T01:59:08;47.70;;;20.07;;
17488;SDS011;8861;52.644;4.734;2024-02-26T02:01:47;42.87;;;19.43;;
17488;SDS011;8861;52.644;4.734;2024-02-26T02:04:20;37.50;;;18.43;;
17488;SDS011;8861;52.644;4.734;2024-02-26T02:06:49;35.30;;;17.30;;
17488;SDS011;8861;52.644;4.734;2024-02-26T02:09:17;36.93;;;18.77;;
17488;SDS011;8861;52.644;4.734;2024-02-26T02:11:44;40.20;;;18.43;;
17488;SDS011;8861;52.644;4.734;2024-02-26T02:14:11;43.37;;;19.33;;
17488;SDS011;8861;52.644;4.734;2024-02-26T02:16:38;52.33;;;21.37;;
17488;SDS011;8861;52.644;4.734;2024-02-26T02:19:05;41.00;;;19.60;;
17488;SDS011;8861;52.644;4.734;2024-02-26T02:21:33;40.03;;;19.07;;
17488;SDS011;8861;52.644;4.734;2024-02-26T02:24:00;43.70;;;20.23;;
17488;SDS011;8861;52.644;4.734;2024-02-26T02:26:27;40.33;;;19.40;;
17488;SDS011;8861;52.644;4.734;2024-02-26T02:28:54;41.60;;;20.07;;
17488;SDS011;8861;52.644;4.734;2024-02-26T02:31:21;43.80;;;21.20;;
17488;SDS011;8861;52.644;4.734;2024-02-26T02:33:48;40.63;;;19.40;;
17488;SDS011;8861;52.644;4.734;2024-02-26T02:36:15;47.73;;;20.87;;
17488;SDS011;8861;52.644;4.734;2024-02-26T02:38:49;41.20;;;19.73;;
17488;SDS011;8861;52.644;4.734;2024-02-26T02:41:17;40.00;;;20.13;;
17488;SDS011;8861;52.644;4.734;2024-02-26T02:43:44;49.73;;;21.83;;
17488;SDS011;8861;52.644;4.734;2024-02-26T02:46:11;45.43;;;20.77;;
17488;SDS011;8861;52.644;4.734;2024-02-26T02:48:38;39.83;;;20.53;;
17488;SDS011;8861;52.644;4.734;2024-02-26T02:51:05;42.73;;;21.80;;
17488;SDS011;8861;52.644;4.734;2024-02-26T02:53:35;39.30;;;19.57;;
17488;SDS011;8861;52.644;4.734;2024-02-26T02:56:03;47.93;;;22.57;;
17488;SDS011;8861;52.644;4.734;2024-02-26T02:58:31;42.07;;;22.63;;
17488;SDS011;8861;52.644;4.734;2024-02-26T03:00:58;46.77;;;24.67;;
17488;SDS011;8861;52.644;4.734;2024-02-26T03:03:25;42.90;;;22.20;;
17488;SDS011;8861;52.644;4.734;2024-02-26T03:05:53;46.37;;;24.23;;
17488;SDS011;8861;52.644;4.734;2024-02-26T03:08:21;43.67;;;23.90;;
17488;SDS011;8861;52.644;4.734;2024-02-26T03:10:48;45.37;;;24.53;;
17488;SDS011;8861;52.644;4.734;2024-02-26T03:13:17;45.97;;;23.40;;
17488;SDS011;8861;52.644;4.734;2024-02-26T03:15:44;42.00;;;22.50;;
17488;SDS011;8861;52.644;4.734;2024-02-26T03:18:11;46.50;;;22.97;;
17488;SDS011;8861;52.644;4.734;2024-02-26T03:20:38;51.00;;;23.83;;
17488;SDS011;8861;52.644;4.734;2024-02-26T03:23:05;41.93;;;21.87;;
17488;SDS011;8861;52.644;4.734;2024-02-26T03:25:34;39.57;;;21.57;;
17488;SDS011;8861;52.644;4.734;2024-02-26T03:28:02;39.40;;;21.27;;
17488;SDS011;8861;52.644;4.734;2024-02-26T03:30:30;44.37;;;21.40;;
17488;SDS011;8861;52.644;4.734;2024-02-26T03:32:57;45.73;;;21.87;;
17488;SDS011;8861;52.644;4.734;2024-02-26T03:35:24;40.13;;;20.67;;
17488;SDS011;8861;52.644;4.734;2024-02-26T03:37:51;42.30;;;22.30;;
17488;SDS011;8861;52.644;4.734;2024-02-26T03:40:18;52.80;;;24.27;;
17488;SDS011;8861;52.644;4.734;2024-02-26T03:42:45;41.10;;;21.70;;
17488;SDS011;8861;52.644;4.734;2024-02-26T03:45:12;46.97;;;23.60;;
17488;SDS011;8861;52.644;4.734;2024-02-26T03:47:41;42.67;;;21.57;;
17488;SDS011;8861;52.644;4.734;2024-02-26T03:50:08;37.37;;;19.77;;
17488;SDS011;8861;52.644;4.734;2024-02-26T03:52:35;44.40;;;22.50;;
17488;SDS011;8861;52.644;4.734;2024-02-26T03:55:02;43.50;;;22.33;;
17488;SDS011;8861;52.644;4.734;2024-02-26T03:57:30;38.93;;;20.63;;
17488;SDS011;8861;52.644;4.734;2024-02-26T03:59:57;37.40;;;20.73;;
17488;SDS011;8861;52.644;4.734;2024-02-26T04:02:24;37.90;;;19.87;;
17488;SDS011;8861;52.644;4.734;2024-02-26T04:04:53;48.73;;;23.10;;
17488;SDS011;8861;52.644;4.734;2024-02-26T04:07:20;41.17;;;21.77;;
17488;SDS011;8861;52.644;4.734;2024-02-26T04:09:47;42.57;;;22.37;;
17488;SDS011;8861;52.644;4.734;2024-02-26T04:12:14;39.83;;;21.40;;
17488;SDS011;8861;52.644;4.734;2024-02-26T04:14:41;41.70;;;21.03;;
17488;SDS011;8861;52.644;4.734;2024-02-26T04:17:09;43.13;;;20.90;;
17488;SDS011;8861;52.644;4.734;2024-02-26T04:19:37;41.00;;;20.77;;
17488;SDS011;8861;52.644;4.734;2024-02-26T04:22:05;42.33;;;21.57;;
17488;SDS011;8861;52.644;4.734;2024-02-26T04:24:32;38.97;;;21.07;;
17488;SDS011;8861;52.644;4.734;2024-02-26T04:26:59;42.10;;;21.67;;
17488;SDS011;8861;52.644;4.734;2024-02-26T04:29:26;43.20;;;22.50;;
17488;SDS011;8861;52.644;4.734;2024-02-26T04:31:53;42.40;;;22.27;;
17488;SDS011;8861;52.644;4.734;2024-02-26T04:34:20;39.13;;;21.07;;
17488;SDS011;8861;52.644;4.734;2024-02-26T04:36:47;40.07;;;20.70;;
17488;SDS011;8861;52.644;4.734;2024-02-26T04:39:16;38.93;;;21.07;;
17488;SDS011;8861;52.644;4.734;2024-02-26T04:41:43;36.13;;;20.10;;
17488;SDS011;8861;52.644;4.734;2024-02-26T04:44:10;33.30;;;18.97;;
17488;SDS011;8861;52.644;4.734;2024-02-26T04:46:37;33.77;;;19.37;;
17488;SDS011;8861;52.644;4.734;2024-02-26T04:49:04;34.27;;;18.83;;
17488;SDS011;8861;52.644;4.734;2024-02-26T04:51:32;39.47;;;21.07;;
17488;SDS011;8861;52.644;4.734;2024-02-26T04:53:59;38.33;;;19.67;;
17488;SDS011;8861;52.644;4.734;2024-02-26T04:56:28;34.27;;;18.47;;
17488;SDS011;8861;52.644;4.734;2024-02-26T04:58:55;31.17;;;18.00;;
17488;SDS011;8861;52.644;4.734;2024-02-26T05:01:22;28.83;;;16.37;;
17488;SDS011;8861;52.644;4.734;2024-02-26T05:03:49;30.33;;;17.53;;
17488;SDS011;8861;52.644;4.734;2024-02-26T05:06:16;32.53;;;17.67;;
17488;SDS011;8861;52.644;4.734;2024-02-26T05:08:43;30.37;;;17.00;;
17488;SDS011;8861;52.644;4.734;2024-02-26T05:11:11;27.77;;;16.13;;
17488;SDS011;8861;52.644;4.734;2024-02-26T05:13:39;26.93;;;14.77;;
17488;SDS011;8861;52.644;4.734;2024-02-26T05:16:10;27.80;;;15.50;;
17488;SDS011;8861;52.644;4.734;2024-02-26T05:18:37;27.53;;;15.13;;
17488;SDS011;8861;52.644;4.734;2024-02-26T05:21:04;25.93;;;14.00;;
17488;SDS011;8861;52.644;4.734;2024-02-26T05:23:31;23.50;;;13.07;;
17488;SDS011;8861;52.644;4.734;2024-02-26T05:25:58;23.63;;;13.07;;
17488;SDS011;8861;52.644;4.734;2024-02-26T05:28:25;24.47;;;13.43;;
17488;SDS011;8861;52.644;4.734;2024-02-26T05:30:53;20.33;;;12.40;;
17488;SDS011;8861;52.644;4.734;2024-02-26T05:33:20;21.37;;;11.93;;
17488;SDS011;8861;52.644;4.734;2024-02-26T05:35:48;22.63;;;13.00;;
17488;SDS011;8861;52.644;4.734;2024-02-26T05:38:15;21.33;;;12.07;;
17488;SDS011;8861;52.644;4.734;2024-02-26T05:40:42;19.87;;;11.13;;
17488;SDS011;8861;52.644;4.734;2024-02-26T05:43:11;20.07;;;11.40;;
17488;SDS011;8861;52.644;4.734;2024-02-26T05:45:40;20.60;;;11.47;;
17488;SDS011;8861;52.644;4.734;2024-02-26T05:48:08;18.20;;;10.67;;
17488;SDS011;8861;52.644;4.734;2024-02-26T05:50:35;18.90;;;10.53;;
17488;SDS011;8861;52.644;4.734;2024-02-26T05:53:02;19.07;;;10.97;;
17488;SDS011;8861;52.644;4.734;2024-02-26T05:55:30;17.43;;;9.90;;
17488;SDS011;8861;52.644;4.734;2024-02-26T05:57:56;19.50;;;10.83;;
17488;SDS011;8861;52.644;4.734;2024-02-26T06:00:23;21.20;;;10.87;;
17488;SDS011;8861;52.644;4.734;2024-02-26T06:02:50;20.53;;;11.40;;
17488;SDS011;8861;52.644;4.734;2024-02-26T06:05:19;22.90;;;12.47;;
17488;SDS011;8861;52.644;4.734;2024-02-26T06:07:46;23.63;;;11.93;;
17488;SDS011;8861;52.644;4.734;2024-02-26T06:10:14;24.20;;;12.40;;
17488;SDS011;8861;52.644;4.734;2024-02-26T06:12:41;20.83;;;11.63;;
17488;SDS011;8861;52.644;4.734;2024-02-26T06:15:08;23.17;;;11.67;;
17488;SDS011;8861;52.644;4.734;2024-02-26T06:17:35;23.37;;;11.53;;
17488;SDS011;8861;52.644;4.734;2024-02-26T06:20:03;20.07;;;11.37;;
17488;SDS011;8861;52.644;4.734;2024-02-26T06:22:33;18.33;;;10.63;;
17488;SDS011;8861;52.644;4.734;2024-02-26T06:25:00;20.17;;;11.83;;
17488;SDS011;8861;52.644;4.734;2024-02-26T06:27:27;23.83;;;12.77;;
17488;SDS011;8861;52.644;4.734;2024-02-26T06:29:54;26.90;;;13.63;;
17488;SDS011;8861;52.644;4.734;2024-02-26T06:32:20;19.57;;;11.27;;
17488;SDS011;8861;52.644;4.734;2024-02-26T06:34:48;20.47;;;11.60;;
17488;SDS011;8861;52.644;4.734;2024-02-26T06:37:15;21.40;;;11.40;;
17488;SDS011;8861;52.644;4.734;2024-02-26T06:39:43;23.40;;;12.57;;
17488;SDS011;8861;52.644;4.734;2024-02-26T06:42:10;23.40;;;12.77;;
17488;SDS011;8861;52.644;4.734;2024-02-26T06:44:37;23.30;;;12.70;;
17488;SDS011;8861;52.644;4.734;2024-02-26T06:47:05;26.60;;;13.13;;
17488;SDS011;8861;52.644;4.734;2024-02-26T06:49:32;20.83;;;12.40;;
17488;SDS011;8861;52.644;4.734;2024-02-26T06:51:59;25.37;;;12.87;;
17488;SDS011;8861;52.644;4.734;2024-02-26T06:54:26;23.07;;;13.00;;
17488;SDS011;8861;52.644;4.734;2024-02-26T06:56:54;19.87;;;11.60;;
17488;SDS011;8861;52.644;4.734;2024-02-26T06:59:23;21.20;;;11.57;;
17488;SDS011;8861;52.644;4.734;2024-02-26T07:01:54;20.73;;;11.63;;
17488;SDS011;8861;52.644;4.734;2024-02-26T07:04:21;19.93;;;11.97;;
17488;SDS011;8861;52.644;4.734;2024-02-26T07:06:48;20.07;;;11.53;;
17488;SDS011;8861;52.644;4.734;2024-02-26T07:09:15;22.87;;;12.53;;
17488;SDS011;8861;52.644;4.734;2024-02-26T07:11:42;19.17;;;11.33;;
17488;SDS011;8861;52.644;4.734;2024-02-26T07:14:11;19.53;;;11.70;;
17488;SDS011;8861;52.644;4.734;2024-02-26T07:16:38;21.90;;;11.40;;
17488;SDS011;8861;52.644;4.734;2024-02-26T07:19:05;16.47;;;10.50;;
17488;SDS011;8861;52.644;4.734;2024-02-26T07:21:32;14.10;;;9.90;;
17488;SDS011;8861;52.644;4.734;2024-02-26T07:24:01;16.60;;;10.20;;
17488;SDS011;8861;52.644;4.734;2024-02-26T07:26:29;16.60;;;11.00;;
17488;SDS011;8861;52.644;4.734;2024-02-26T07:28:56;16.33;;;9.77;;
17488;SDS011;8861;52.644;4.734;2024-02-26T07:31:26;17.57;;;9.60;;
17488;SDS011;8861;52.644;4.734;2024-02-26T07:33:53;10.50;;;8.10;;
17488;SDS011;8861;52.644;4.734;2024-02-26T07:36:20;14.73;;;8.63;;
17488;SDS011;8861;52.644;4.734;2024-02-26T07:38:47;12.60;;;8.30;;
17488;SDS011;8861;52.644;4.734;2024-02-26T07:41:15;13.80;;;8.47;;
17488;SDS011;8861;52.644;4.734;2024-02-26T07:43:42;12.00;;;8.27;;
17488;SDS011;8861;52.644;4.734;2024-02-26T07:46:10;13.60;;;8.00;;
17488;SDS011;8861;52.644;4.734;2024-02-26T07:48:39;13.10;;;7.93;;
17488;SDS011;8861;52.644;4.734;2024-02-26T07:51:07;11.23;;;7.97;;
17488;SDS011;8861;52.644;4.734;2024-02-26T07:53:34;13.57;;;7.53;;
17488;SDS011;8861;52.644;4.734;2024-02-26T07:56:01;14.67;;;8.83;;
17488;SDS011;8861;52.644;4.734;2024-02-26T07:58:28;12.63;;;7.17;;
17488;SDS011;8861;52.644;4.734;2024-02-26T08:00:55;13.47;;;7.53;;
17488;SDS011;8861;52.644;4.734;2024-02-26T08:03:22;11.70;;;7.87;;
17488;SDS011;8861;52.644;4.734;2024-02-26T08:05:50;13.43;;;7.97;;
17488;SDS011;8861;52.644;4.734;2024-02-26T08:08:17;12.97;;;7.80;;
17488;SDS011;8861;52.644;4.734;2024-02-26T08:10:44;12.70;;;7.43;;
17488;SDS011;8861;52.644;4.734;2024-02-26T08:13:11;10.10;;;6.77;;
17488;SDS011;8861;52.644;4.734;2024-02-26T08:15:39;9.77;;;6.73;;
17488;SDS011;8861;52.644;4.734;2024-02-26T08:18:06;8.63;;;6.30;;
17488;SDS011;8861;52.644;4.734;2024-02-26T08:20:33;12.00;;;7.30;;
17488;SDS011;8861;52.644;4.734;2024-02-26T08:23:02;10.30;;;6.37;;
17488;SDS011;8861;52.644;4.734;2024-02-26T08:25:30;10.60;;;6.80;;
17488;SDS011;8861;52.644;4.734;2024-02-26T08:27:57;8.90;;;6.10;;
17488;SDS011;8861;52.644;4.734;2024-02-26T08:30:25;9.23;;;6.10;;
17488;SDS011;8861;52.644;4.734;2024-02-26T08:32:52;8.90;;;6.33;;
17488;SDS011;8861;52.644;4.734;2024-02-26T08:35:19;9.77;;;6.53;;
17488;SDS011;8861;52.644;4.734;2024-02-26T08:37:46;13.03;;;7.17;;
17488;SDS011;8861;52.644;4.734;2024-02-26T08:40:15;10.27;;;6.77;;
17488;SDS011;8861;52.644;4.734;2024-02-26T08:42:44;11.13;;;6.67;;
17488;SDS011;8861;52.644;4.734;2024-02-26T08:45:11;12.27;;;6.67;;
17488;SDS011;8861;52.644;4.734;2024-02-26T08:47:38;12.50;;;7.10;;
17488;SDS011;8861;52.644;4.734;2024-02-26T08:50:06;11.53;;;6.73;;
17488;SDS011;8861;52.644;4.734;2024-02-26T08:52:34;11.10;;;6.80;;
17488;SDS011;8861;52.644;4.734;2024-02-26T08:55:01;9.30;;;6.70;;
17488;SDS011;8861;52.644;4.734;2024-02-26T08:57:31;9.73;;;6.50;;
17488;SDS011;8861;52.644;4.734;2024-02-26T08:59:58;14.63;;;7.03;;
17488;SDS011;8861;52.644;4.734;2024-02-26T09:02:26;9.30;;;5.60;;
17488;SDS011;8861;52.644;4.734;2024-02-26T09:05:05;9.30;;;5.93;;
17488;SDS011;8861;52.644;4.734;2024-02-26T09:07:33;9.30;;;6.00;;
17488;SDS011;8861;52.644;4.734;2024-02-26T09:10:00;12.23;;;6.20;;
17488;SDS011;8861;52.644;4.734;2024-02-26T09:12:26;9.93;;;6.43;;
17488;SDS011;8861;52.644;4.734;2024-02-26T09:14:55;10.53;;;6.30;;
17488;SDS011;8861;52.644;4.734;2024-02-26T09:17:23;10.43;;;6.53;;
17488;SDS011;8861;52.644;4.734;2024-02-26T09:19:50;9.93;;;5.93;;
17488;SDS011;8861;52.644;4.734;2024-02-26T09:22:17;7.83;;;5.13;;
17488;SDS011;8861;52.644;4.734;2024-02-26T09:24:44;10.33;;;5.60;;
17488;SDS011;8861;52.644;4.734;2024-02-26T09:27:11;9.00;;;5.53;;
17488;SDS011;8861;52.644;4.734;2024-02-26T09:29:39;11.47;;;5.90;;
17488;SDS011;8861;52.644;4.734;2024-02-26T09:32:07;10.03;;;5.90;;
17488;SDS011;8861;52.644;4.734;2024-02-26T09:34:34;8.40;;;5.50;;
17488;SDS011;8861;52.644;4.734;2024-02-26T09:37:01;9.60;;;6.17;;
17488;SDS011;8861;52.644;4.734;2024-02-26T09:39:28;11.50;;;6.90;;
17488;SDS011;8861;52.644;4.734;2024-02-26T09:41:55;12.90;;;6.57;;
17488;SDS011;8861;52.644;4.734;2024-02-26T09:44:26;11.20;;;6.10;;
17488;SDS011;8861;52.644;4.734;2024-02-26T09:46:58;13.20;;;6.70;;
17488;SDS011;8861;52.644;4.734;2024-02-26T09:49:27;11.50;;;6.53;;
17488;SDS011;8861;52.644;4.734;2024-02-26T09:51:54;10.20;;;6.80;;
17488;SDS011;8861;52.644;4.734;2024-02-26T09:54:24;10.70;;;6.20;;
17488;SDS011;8861;52.644;4.734;2024-02-26T09:56:53;12.30;;;7.20;;
17488;SDS011;8861;52.644;4.734;2024-02-26T09:59:25;12.47;;;6.30;;
17488;SDS011;8861;52.644;4.734;2024-02-26T10:01:53;11.53;;;6.67;;
17488;SDS011;8861;52.644;4.734;2024-02-26T10:04:24;15.90;;;6.30;;
17488;SDS011;8861;52.644;4.734;2024-02-26T10:06:53;10.23;;;6.50;;
17488;SDS011;8861;52.644;4.734;2024-02-26T10:09:21;11.43;;;6.80;;
17488;SDS011;8861;52.644;4.734;2024-02-26T10:11:49;14.80;;;7.00;;
17488;SDS011;8861;52.644;4.734;2024-02-26T10:14:17;13.93;;;7.13;;
17488;SDS011;8861;52.644;4.734;2024-02-26T10:16:44;13.37;;;6.40;;
17488;SDS011;8861;52.644;4.734;2024-02-26T10:19:12;8.40;;;6.10;;
17488;SDS011;8861;52.644;4.734;2024-02-26T10:21:56;8.80;;;5.90;;
17488;SDS011;8861;52.644;4.734;2024-02-26T10:24:24;8.90;;;5.63;;
17488;SDS011;8861;52.644;4.734;2024-02-26T10:26:54;9.23;;;5.80;;
17488;SDS011;8861;52.644;4.734;2024-02-26T10:29:25;9.53;;;6.13;;
17488;SDS011;8861;52.644;4.734;2024-02-26T10:31:58;8.47;;;5.97;;
17488;SDS011;8861;52.644;4.734;2024-02-26T10:34:31;11.37;;;5.60;;
17488;SDS011;8861;52.644;4.734;2024-02-26T10:44:23;10.60;;;6.03;;
17488;SDS011;8861;52.644;4.734;2024-02-26T10:47:27;9.33;;;5.43;;
17488;SDS011;8861;52.644;4.734;2024-02-26T10:56:34;8.70;;;4.83;;
17488;SDS011;8861;52.644;4.734;2024-02-26T11:09:41;8.80;;;5.00;;
17488;SDS011;8861;52.644;4.734;2024-02-26T11:12:31;9.50;;;4.87;;
17488;SDS011;8861;52.644;4.734;2024-02-26T11:25:44;7.37;;;4.90;;
17488;SDS011;8861;52.644;4.734;2024-02-26T11:35:19;6.90;;;4.97;;
17488;SDS011;8861;52.644;4.734;2024-02-26T11:38:20;9.90;;;5.20;;
17488;SDS011;8861;52.644;4.734;2024-02-26T11:40:49;10.40;;;5.10;;
17488;SDS011;8861;52.644;4.734;2024-02-26T11:49:29;7.50;;;4.97;;
17488;SDS011;8861;52.644;4.734;2024-02-26T11:50:35;9.67;;;5.13;;
17488;SDS011;8861;52.644;4.734;2024-02-26T11:53:27;8.53;;;4.83;;
17488;SDS011;8861;52.644;4.734;2024-02-26T11:56:15;7.33;;;4.83;;
17488;SDS011;8861;52.644;4.734;2024-02-26T11:59:00;7.53;;;5.10;;
17488;SDS011;8861;52.644;4.734;2024-02-26T12:01:41;6.90;;;4.50;;
17488;SDS011;8861;52.644;4.734;2024-02-26T12:04:13;7.90;;;4.77;;
17488;SDS011;8861;52.644;4.734;2024-02-26T12:06:44;7.63;;;4.80;;
17488;SDS011;8861;52.644;4.734;2024-02-26T12:09:13;7.50;;;4.90;;
17488;SDS011;8861;52.644;4.734;2024-02-26T12:11:58;11.07;;;5.17;;
17488;SDS011;8861;52.644;4.734;2024-02-26T12:14:25;7.67;;;5.10;;
17488;SDS011;8861;52.644;4.734;2024-02-26T12:17:02;7.73;;;4.90;;
17488;SDS011;8861;52.644;4.734;2024-02-26T12:19:49;7.20;;;5.13;;
17488;SDS011;8861;52.644;4.734;2024-02-26T12:22:20;9.00;;;4.93;;
17488;SDS011;8861;52.644;4.734;2024-02-26T12:25:00;8.17;;;5.10;;
17488;SDS011;8861;52.644;4.734;2024-02-26T12:27:41;9.70;;;5.47;;
17488;SDS011;8861;52.644;4.734;2024-02-26T12:30:11;8.73;;;5.50;;
17488;SDS011;8861;52.644;4.734;2024-02-26T12:32:44;7.33;;;5.20;;
17488;SDS011;8861;52.644;4.734;2024-02-26T12:35:11;10.20;;;6.00;;
17488;SDS011;8861;52.644;4.734;2024-02-26T12:37:39;11.57;;;5.63;;
17488;SDS011;8861;52.644;4.734;2024-02-26T12:40:09;10.93;;;6.23;;
17488;SDS011;8861;52.644;4.734;2024-02-26T12:42:36;8.43;;;5.80;;
17488;SDS011;8861;52.644;4.734;2024-02-26T12:45:08;9.10;;;6.23;;
17488;SDS011;8861;52.644;4.734;2024-02-26T12:47:39;7.47;;;5.80;;
17488;SDS011;8861;52.644;4.734;2024-02-26T12:50:11;9.07;;;5.50;;
17488;SDS011;8861;52.644;4.734;2024-02-26T12:59:20;11.60;;;5.30;;
17488;SDS011;8861;52.644;4.734;2024-02-26T13:01:52;7.57;;;5.20;;
17488;SDS011;8861;52.644;4.734;2024-02-26T13:04:24;10.10;;;5.60;;
17488;SDS011;8861;52.644;4.734;2024-02-26T13:06:52;8.97;;;5.10;;
17488;SDS011;8861;52.644;4.734;2024-02-26T13:09:19;7.80;;;5.23;;
17488;SDS011;8861;52.644;4.734;2024-02-26T13:11:53;9.67;;;5.53;;
17488;SDS011;8861;52.644;4.734;2024-02-26T13:14:19;9.77;;;5.73;;
17488;SDS011;8861;52.644;4.734;2024-02-26T13:16:55;8.23;;;5.97;;
17488;SDS011;8861;52.644;4.734;2024-02-26T13:19:22;9.23;;;5.80;;
17488;SDS011;8861;52.644;4.734;2024-02-26T13:21:53;9.53;;;5.67;;
17488;SDS011;8861;52.644;4.734;2024-02-26T13:31:48;10.87;;;5.37;;
17488;SDS011;8861;52.644;4.734;2024-02-26T13:40:45;10.30;;;5.30;;
17488;SDS011;8861;52.644;4.734;2024-02-26T13:43:30;9.60;;;5.17;;
17488;SDS011;8861;52.644;4.734;2024-02-26T13:46:26;9.40;;;4.93;;
17488;SDS011;8861;52.644;4.734;2024-02-26T13:49:18;7.67;;;4.93;;
17488;SDS011;8861;52.644;4.734;2024-02-26T14:04:21;7.50;;;4.13;;
17488;SDS011;8861;52.644;4.734;2024-02-26T14:06:47;7.10;;;3.77;;
17488;SDS011;8861;52.644;4.734;2024-02-26T14:09:18;7.37;;;3.50;;
17488;SDS011;8861;52.644;4.734;2024-02-26T14:11:48;9.17;;;3.30;;
17488;SDS011;8861;52.644;4.734;2024-02-26T14:14:16;9.87;;;3.37;;
17488;SDS011;8861;52.644;4.734;2024-02-26T14:16:43;9.50;;;3.20;;
17488;SDS011;8861;52.644;4.734;2024-02-26T14:19:10;7.97;;;3.50;;
17488;SDS011;8861;52.644;4.734;2024-02-26T14:21:37;22.07;;;4.70;;
17488;SDS011;8861;52.644;4.734;2024-02-26T14:24:05;20.90;;;4.70;;
17488;SDS011;8861;52.644;4.734;2024-02-26T14:26:33;8.10;;;3.00;;
17488;SDS011;8861;52.644;4.734;2024-02-26T14:29:00;9.30;;;3.10;;
17488;SDS011;8861;52.644;4.734;2024-02-26T14:31:27;6.50;;;3.00;;
17488;SDS011;8861;52.644;4.734;2024-02-26T14:33:54;5.13;;;2.97;;
17488;SDS011;8861;52.644;4.734;2024-02-26T14:36:22;7.90;;;2.80;;
17488;SDS011;8861;52.644;4.734;2024-02-26T14:38:49;8.27;;;2.90;;
17488;SDS011;8861;52.644;4.734;2024-02-26T14:41:16;6.63;;;2.90;;
17488;SDS011;8861;52.644;4.734;2024-02-26T14:43:44;7.50;;;2.73;;
17488;SDS011;8861;52.644;4.734;2024-02-26T14:46:11;6.80;;;2.80;;
17488;SDS011;8861;52.644;4.734;2024-02-26T14:48:38;5.77;;;2.73;;
17488;SDS011;8861;52.644;4.734;2024-02-26T14:51:05;5.00;;;2.50;;
17488;SDS011;8861;52.644;4.734;2024-02-26T14:53:33;6.20;;;3.10;;
17488;SDS011;8861;52.644;4.734;2024-02-26T14:56:00;6.30;;;2.30;;
17488;SDS011;8861;52.644;4.734;2024-02-26T14:58:27;7.17;;;3.13;;
17488;SDS011;8861;52.644;4.734;2024-02-26T15:00:56;7.00;;;2.50;;
17488;SDS011;8861;52.644;4.734;2024-02-26T15:03:23;9.87;;;2.60;;
17488;SDS011;8861;52.644;4.734;2024-02-26T15:05:50;4.80;;;2.40;;
17488;SDS011;8861;52.644;4.734;2024-02-26T15:08:17;6.73;;;2.60;;
17488;SDS011;8861;52.644;4.734;2024-02-26T15:10:44;4.87;;;2.17;;
17488;SDS011;8861;52.644;4.734;2024-02-26T15:13:13;3.97;;;2.23;;
17488;SDS011;8861;52.644;4.734;2024-02-26T15:15:40;5.10;;;2.40;;
17488;SDS011;8861;52.644;4.734;2024-02-26T15:18:08;5.47;;;2.50;;
17488;SDS011;8861;52.644;4.734;2024-02-26T15:20:40;5.97;;;2.20;;
17488;SDS011;8861;52.644;4.734;2024-02-26T15:23:08;3.53;;;2.30;;
17488;SDS011;8861;52.644;4.734;2024-02-26T15:25:35;4.67;;;2.50;;
17488;SDS011;8861;52.644;4.734;2024-02-26T15:28:01;3.00;;;2.00;;
17488;SDS011;8861;52.644;4.734;2024-02-26T15:30:28;5.23;;;2.50;;
17488;SDS011;8861;52.644;4.734;2024-02-26T15:32:57;3.80;;;2.50;;
17488;SDS011;8861;52.644;4.734;2024-02-26T15:35:26;5.30;;;2.80;;
17488;SDS011;8861;52.644;4.734;2024-02-26T15:37:53;5.33;;;2.77;;
17488;SDS011;8861;52.644;4.734;2024-02-26T15:40:20;5.97;;;2.80;;
17488;SDS011;8861;52.644;4.734;2024-02-26T15:42:47;7.50;;;2.60;;
17488;SDS011;8861;52.644;4.734;2024-02-26T15:45:14;3.83;;;2.43;;
17488;SDS011;8861;52.644;4.734;2024-02-26T15:47:42;4.23;;;2.70;;
17488;SDS011;8861;52.644;4.734;2024-02-26T15:50:09;3.57;;;2.50;;
17488;SDS011;8861;52.644;4.734;2024-02-26T15:52:38;4.57;;;2.30;;
17488;SDS011;8861;52.644;4.734;2024-02-26T15:55:08;5.03;;;2.27;;
17488;SDS011;8861;52.644;4.734;2024-02-26T15:57:38;4.10;;;2.13;;
17488;SDS011;8861;52.644;4.734;2024-02-26T16:00:07;4.27;;;2.20;;
17488;SDS011;8861;52.644;4.734;2024-02-26T16:02:46;4.40;;;2.40;;
17488;SDS011;8861;52.644;4.734;2024-02-26T16:05:24;6.43;;;2.33;;
17488;SDS011;8861;52.644;4.734;2024-02-26T16:07:53;4.90;;;2.10;;
17488;SDS011;8861;52.644;4.734;2024-02-26T16:10:23;5.30;;;2.20;;
17488;SDS011;8861;52.644;4.734;2024-02-26T16:12:53;4.23;;;2.17;;
17488;SDS011;8861;52.644;4.734;2024-02-26T16:15:34;3.80;;;1.90;;